Cortez, CO

5:50 PM MST on February 19, 2017 (GMT -0700)
North Cortez | | Change Station

Elev 6120 ft 37.36 °N, 108.57 °W | Updated 3 seconds ago

Overcast
Overcast
37.9 °F
Feels Like 38 °F
N
0.0
Wind Variable Wind from ENE
Gusts 0.0 mph

Today
High -- | Low -- °F
--% Chance of Precip.
Yesterday
High -- | Low -- °F
Precip. -- in
Pressure 29.78 in
Visibility 10.0 miles
Clouds Few 3200 ft
Scattered Clouds 4800 ft
Mostly Cloudy 6000 ft
Windchill 38 °F
Dew Point 34 °F
Humidity 87%
Rainfall 0.33 in
Snow Depth Not available.
6:58 AM 5:58 PM
Last Quarter, 39% visible
METAR KCEZ 192353Z AUTO 16008KT 10SM FEW032 SCT048 BKN060 04/02 A2986 RMK AO2 RAB33E46 SLP084 P0000 60014 T00390017 10067 20022 53008
Pressure 29.78 in
Visibility 10.0 miles
Clouds Few 3200 ft
Scattered Clouds 4800 ft
Mostly Cloudy 6000 ft
Windchill 38 °F
Dew Point 34 °F
Humidity 87%
Rainfall 0.33 in
Snow Depth Not available.
6:58 AM 5:58 PM
Last Quarter, 39% visible
METAR KCEZ 192353Z AUTO 16008KT 10SM FEW032 SCT048 BKN060 04/02 A2986 RMK AO2 RAB33E46 SLP084 P0000 60014 T00390017 10067 20022 53008

Get Your Daily Forecast Email!

Thanks for signing up!

Be on the lookout for a verification email in your inbox.

You'll start receiving the daily forecast at 8 AM.

×

10-Day Weather Forecast

Almanac

Astronomy

Feb. 19, 2017 Rise Set
Actual Time
Civil Twilight
Nautical Twilight
Astronomical Twilight
Moon
Length of Visible Light
Length of Day
Tomorrow will be .
, % of the Moon is Illuminated

Today's Extremes

State Highs State Lows

Community

WunderPhotos

Upload Photos

1,962,540 photos uploaded!

WunderBlog® & News

Nearby

Air Quality

  Air Quality AQ Index Pollutant
Not available.

Snow Depth

Station Depth Elevation

Earthquake Activity

City Distance Mag. Time & Date
Minimum magnitude displayed is 2.5.

Coastal Water Temperatures

Place Temperature

Stations

Nearby Weather Stations

Station Location Temp. Windchill Dew Point Humidity Wind Precip. Elev Updated Type
                   

Watches & Warnings

There are currently no watches in effect.